Milton, Canada
Current Conditions -  °F | °C
As of 10:00 PM on Friday 28 Nov 2014 (Local Time) from CYYZ Reporting Station
Overcast Overcast  
Wind Chill: 14°   Ceiling: 12000
Heat Index: 23°   Visibility: 15mi
Dew Point: 14°   Wind: 8mph
Humidity: 68%   Direction: 270°W
Pressure: 30.19"   Gusts: NA
Location:  43.51°N, 79.88°W
Report Text: CYYZ 290300Z 27007KT 15SM OVC120 M05/M10 A3019 RMK AS8 SLP233
Loading
Personal Weather Stations






























Interactive Weather Map New forecast layout! Learn more

10-Day Weather Forecast

Advertisements
Track Severe Weather on mobile